sensor_id;sensor_type;location;lat;lon;timestamp;temperature;humidity
1055;DHT22;516;51.482;7.120;2023-03-03T00:04:03;1.70;99.90
1055;DHT22;516;51.482;7.120;2023-03-03T00:09:51;1.60;99.90
1055;DHT22;516;51.482;7.120;2023-03-03T00:15:39;1.60;99.90
1055;DHT22;516;51.482;7.120;2023-03-03T00:33:26;1.60;99.90
1055;DHT22;516;51.482;7.120;2023-03-03T00:39:37;1.60;99.90
1055;DHT22;516;51.482;7.120;2023-03-03T00:48:49;1.60;99.90
1055;DHT22;516;51.482;7.120;2023-03-03T00:54:36;1.70;99.90
1055;DHT22;516;51.482;7.120;2023-03-03T01:00:24;1.60;99.90
1055;DHT22;516;51.482;7.120;2023-03-03T01:06:12;1.60;99.90
1055;DHT22;516;51.482;7.120;2023-03-03T01:12:00;1.50;99.90
1055;DHT22;516;51.482;7.120;2023-03-03T01:17:48;1.60;99.90
1055;DHT22;516;51.482;7.120;2023-03-03T01:23:36;1.60;99.90
1055;DHT22;516;51.482;7.120;2023-03-03T01:29:24;1.70;99.90
1055;DHT22;516;51.482;7.120;2023-03-03T01:35:11;1.60;99.90
1055;DHT22;516;51.482;7.120;2023-03-03T01:40:59;1.60;99.90
1055;DHT22;516;51.482;7.120;2023-03-03T01:50:05;1.60;99.90
1055;DHT22;516;51.482;7.120;2023-03-03T01:56:14;1.50;99.90
1055;DHT22;516;51.482;7.120;2023-03-03T02:02:03;1.60;99.90
1055;DHT22;516;51.482;7.120;2023-03-03T02:07:51;1.50;99.90
1055;DHT22;516;51.482;7.120;2023-03-03T02:13:39;1.40;99.90
1055;DHT22;516;51.482;7.120;2023-03-03T02:31:56;1.30;99.90
1055;DHT22;516;51.482;7.120;2023-03-03T02:37:44;1.40;99.90
1055;DHT22;516;51.482;7.120;2023-03-03T02:53:23;1.20;99.90
1055;DHT22;516;51.482;7.120;2023-03-03T02:59:11;1.20;99.90
1055;DHT22;516;51.482;7.120;2023-03-03T03:04:58;1.30;99.90
1055;DHT22;516;51.482;7.120;2023-03-03T03:10:46;1.20;99.90
1055;DHT22;516;51.482;7.120;2023-03-03T03:16:35;1.20;99.90
1055;DHT22;516;51.482;7.120;2023-03-03T03:22:04;1.10;99.90
1055;DHT22;516;51.482;7.120;2023-03-03T03:27:51;1.20;99.90
1055;DHT22;516;51.482;7.120;2023-03-03T03:33:39;1.30;99.90
1055;DHT22;516;51.482;7.120;2023-03-03T03:39:27;1.30;99.90
1055;DHT22;516;51.482;7.120;2023-03-03T03:45:14;1.30;99.90
1055;DHT22;516;51.482;7.120;2023-03-03T03:48:18;1.30;99.90
1055;DHT22;516;51.482;7.120;2023-03-03T03:50:46;1.30;99.90
1055;DHT22;516;51.482;7.120;2023-03-03T03:56:34;1.10;99.90
1055;DHT22;516;51.482;7.120;2023-03-03T04:02:22;0.90;99.90
1055;DHT22;516;51.482;7.120;2023-03-03T04:08:10;0.80;99.90
1055;DHT22;516;51.482;7.120;2023-03-03T04:13:58;0.90;99.90
1055;DHT22;516;51.482;7.120;2023-03-03T04:19:46;0.80;99.90
1055;DHT22;516;51.482;7.120;2023-03-03T04:25:33;0.80;99.90
1055;DHT22;516;51.482;7.120;2023-03-03T04:31:21;0.80;99.90
1055;DHT22;516;51.482;7.120;2023-03-03T04:37:09;0.80;99.90
1055;DHT22;516;51.482;7.120;2023-03-03T04:42:56;0.80;99.90
1055;DHT22;516;51.482;7.120;2023-03-03T04:58:37;0.70;99.90
1055;DHT22;516;51.482;7.120;2023-03-03T05:04:24;0.80;99.90
1055;DHT22;516;51.482;7.120;2023-03-03T05:10:12;0.70;99.90
1055;DHT22;516;51.482;7.120;2023-03-03T05:16:00;0.80;99.90
1055;DHT22;516;51.482;7.120;2023-03-03T05:21:47;0.80;99.90
1055;DHT22;516;51.482;7.120;2023-03-03T05:27:35;0.80;99.90
1055;DHT22;516;51.482;7.120;2023-03-03T05:33:23;0.80;99.90
1055;DHT22;516;51.482;7.120;2023-03-03T05:39:10;0.70;99.90
1055;DHT22;516;51.482;7.120;2023-03-03T05:44:58;0.90;99.90
1055;DHT22;516;51.482;7.120;2023-03-03T05:50:43;0.90;99.90
1055;DHT22;516;51.482;7.120;2023-03-03T05:56:31;0.80;99.90
1055;DHT22;516;51.482;7.120;2023-03-03T06:02:18;0.90;99.90
1055;DHT22;516;51.482;7.120;2023-03-03T06:08:06;0.90;99.90
1055;DHT22;516;51.482;7.120;2023-03-03T06:13:54;0.90;99.90
1055;DHT22;516;51.482;7.120;2023-03-03T06:19:42;1.00;99.90
1055;DHT22;516;51.482;7.120;2023-03-03T06:25:30;1.00;99.90
1055;DHT22;516;51.482;7.120;2023-03-03T06:31:17;1.00;99.90
1055;DHT22;516;51.482;7.120;2023-03-03T06:37:05;1.10;99.90
1055;DHT22;516;51.482;7.120;2023-03-03T06:42:53;1.00;99.90
1055;DHT22;516;51.482;7.120;2023-03-03T06:58:37;1.00;99.90
1055;DHT22;516;51.482;7.120;2023-03-03T07:04:30;1.10;99.90
1055;DHT22;516;51.482;7.120;2023-03-03T07:10:25;1.10;99.90
1055;DHT22;516;51.482;7.120;2023-03-03T07:16:15;1.20;99.90
1055;DHT22;516;51.482;7.120;2023-03-03T07:28:40;1.10;99.90
1055;DHT22;516;51.482;7.120;2023-03-03T07:41:17;1.10;99.90
1055;DHT22;516;51.482;7.120;2023-03-03T08:06:10;1.40;99.90
1055;DHT22;516;51.482;7.120;2023-03-03T08:18:23;1.40;99.90
1055;DHT22;516;51.482;7.120;2023-03-03T08:24:11;1.40;99.90
1055;DHT22;516;51.482;7.120;2023-03-03T08:29:59;1.40;99.90
1055;DHT22;516;51.482;7.120;2023-03-03T08:35:47;1.60;99.90
1055;DHT22;516;51.482;7.120;2023-03-03T08:41:34;1.40;99.90
1055;DHT22;516;51.482;7.120;2023-03-03T08:47:22;1.50;99.90
1055;DHT22;516;51.482;7.120;2023-03-03T08:53:11;1.60;99.90
1055;DHT22;516;51.482;7.120;2023-03-03T08:58:59;1.60;99.90
1055;DHT22;516;51.482;7.120;2023-03-03T09:04:47;1.60;99.90
1055;DHT22;516;51.482;7.120;2023-03-03T09:10:34;1.90;99.90
1055;DHT22;516;51.482;7.120;2023-03-03T09:16:22;1.90;99.90
1055;DHT22;516;51.482;7.120;2023-03-03T09:21:52;1.90;99.90
1055;DHT22;516;51.482;7.120;2023-03-03T09:27:41;2.00;99.90
1055;DHT22;516;51.482;7.120;2023-03-03T09:33:44;2.10;99.90
1055;DHT22;516;51.482;7.120;2023-03-03T09:39:35;2.10;99.90
1055;DHT22;516;51.482;7.120;2023-03-03T10:01:54;2.40;99.90
1055;DHT22;516;51.482;7.120;2023-03-03T10:21:14;2.40;99.90
1055;DHT22;516;51.482;7.120;2023-03-03T11:21:38;3.10;93.30
1055;DHT22;516;51.482;7.120;2023-03-03T11:28:15;3.20;91.50
1055;DHT22;516;51.482;7.120;2023-03-03T11:40:58;3.40;90.50
1055;DHT22;516;51.482;7.120;2023-03-03T11:56:52;3.90;55.80
1055;DHT22;516;51.482;7.120;2023-03-03T12:28:43;4.40;57.70
1055;DHT22;516;51.482;7.120;2023-03-03T12:47:37;4.70;38.40
1055;DHT22;516;51.482;7.120;2023-03-03T12:56:53;4.60;43.70
1055;DHT22;516;51.482;7.120;2023-03-03T13:21:41;5.00;28.80
1055;DHT22;516;51.482;7.120;2023-03-03T13:27:56;8.30;13.80
1055;DHT22;516;51.482;7.120;2023-03-03T13:40:43;6.90;12.80
1055;DHT22;516;51.482;7.120;2023-03-03T14:06:38;6.20;14.50
1055;DHT22;516;51.482;7.120;2023-03-03T14:28:49;11.60;1.00
1055;DHT22;516;51.482;7.120;2023-03-03T14:34:39;12.20;1.00
1055;DHT22;516;51.482;7.120;2023-03-03T14:40:33;9.90;1.00
1055;DHT22;516;51.482;7.120;2023-03-03T14:59:20;9.80;1.00
1055;DHT22;516;51.482;7.120;2023-03-03T15:41:23;9.80;1.00
1055;DHT22;516;51.482;7.120;2023-03-03T15:44:16;9.70;1.00
1055;DHT22;516;51.482;7.120;2023-03-03T16:02:29;9.60;1.00
1055;DHT22;516;51.482;7.120;2023-03-03T16:28:49;6.50;12.90
1055;DHT22;516;51.482;7.120;2023-03-03T16:34:59;6.40;8.60
1055;DHT22;516;51.482;7.120;2023-03-03T16:41:14;6.10;12.30
1055;DHT22;516;51.482;7.120;2023-03-03T17:36:44;3.20;91.70
1055;DHT22;516;51.482;7.120;2023-03-03T17:43:08;3.10;99.90
1055;DHT22;516;51.482;7.120;2023-03-03T17:59:23;2.80;99.90
1055;DHT22;516;51.482;7.120;2023-03-03T18:05:46;2.90;99.90
1055;DHT22;516;51.482;7.120;2023-03-03T18:25:51;3.40;99.10
1055;DHT22;516;51.482;7.120;2023-03-03T18:37:39;3.60;91.90
1055;DHT22;516;51.482;7.120;2023-03-03T18:54:33;3.70;93.50
1055;DHT22;516;51.482;7.120;2023-03-03T19:00:22;3.80;90.00
1055;DHT22;516;51.482;7.120;2023-03-03T19:06:29;3.80;91.20
1055;DHT22;516;51.482;7.120;2023-03-03T19:12:17;3.80;88.70
1055;DHT22;516;51.482;7.120;2023-03-03T19:24:38;3.90;81.40
1055;DHT22;516;51.482;7.120;2023-03-03T20:15:06;3.90;90.80
1055;DHT22;516;51.482;7.120;2023-03-03T20:27:19;3.90;94.00
1055;DHT22;516;51.482;7.120;2023-03-03T20:33:16;3.90;95.20
1055;DHT22;516;51.482;7.120;2023-03-03T20:46:18;4.00;93.70
1055;DHT22;516;51.482;7.120;2023-03-03T21:08:14;3.90;97.80
1055;DHT22;516;51.482;7.120;2023-03-03T21:20:35;3.90;99.90
1055;DHT22;516;51.482;7.120;2023-03-03T21:26:45;3.90;99.90
1055;DHT22;516;51.482;7.120;2023-03-03T21:35:57;3.80;99.90
1055;DHT22;516;51.482;7.120;2023-03-03T21:41:57;3.90;99.90
1055;DHT22;516;51.482;7.120;2023-03-03T21:48:06;4.00;99.90
1055;DHT22;516;51.482;7.120;2023-03-03T21:53:57;4.00;99.90
1055;DHT22;516;51.482;7.120;2023-03-03T21:59:35;4.00;99.90
1055;DHT22;516;51.482;7.120;2023-03-03T22:05:24;4.00;99.90
1055;DHT22;516;51.482;7.120;2023-03-03T22:11:12;4.30;94.80
1055;DHT22;516;51.482;7.120;2023-03-03T22:16:59;4.60;63.20
1055;DHT22;516;51.482;7.120;2023-03-03T22:22:47;4.70;56.40
1055;DHT22;516;51.482;7.120;2023-03-03T22:28:35;4.90;50.40
1055;DHT22;516;51.482;7.120;2023-03-03T22:34:22;4.90;49.00
1055;DHT22;516;51.482;7.120;2023-03-03T22:40:11;4.90;45.00
1055;DHT22;516;51.482;7.120;2023-03-03T22:45:58;5.00;43.00
1055;DHT22;516;51.482;7.120;2023-03-03T22:51:46;5.00;41.10
1055;DHT22;516;51.482;7.120;2023-03-03T23:07:28;5.10;37.80
1055;DHT22;516;51.482;7.120;2023-03-03T23:13:15;5.00;37.90
1055;DHT22;516;51.482;7.120;2023-03-03T23:19:03;5.00;38.10
1055;DHT22;516;51.482;7.120;2023-03-03T23:24:50;4.90;40.90
1055;DHT22;516;51.482;7.120;2023-03-03T23:30:38;4.90;42.00
1055;DHT22;516;51.482;7.120;2023-03-03T23:36:25;4.90;43.10
1055;DHT22;516;51.482;7.120;2023-03-03T23:42:13;4.80;47.80
1055;DHT22;516;51.482;7.120;2023-03-03T23:48:00;4.90;48.90
1055;DHT22;516;51.482;7.120;2023-03-03T23:53:48;4.90;51.40
